createdAt,value
2018-09-23T00:02:06.067Z,8.50
2018-09-23T00:04:37.056Z,8.30
2018-09-23T00:07:09.514Z,8.30
2018-09-23T00:09:40.995Z,8.10
2018-09-23T00:12:12.270Z,7.90
2018-09-23T00:14:43.427Z,7.60
2018-09-23T00:17:14.500Z,7.40
2018-09-23T00:19:45.804Z,7.40
2018-09-23T00:22:18.168Z,7.50
2018-09-23T00:24:50.077Z,7.60
2018-09-23T00:27:21.993Z,7.40
2018-09-23T00:29:53.937Z,7.30
2018-09-23T00:32:26.385Z,7.20
2018-09-23T00:34:57.345Z,7.20
2018-09-23T00:37:28.523Z,7.20
2018-09-23T00:39:59.715Z,7.20
2018-09-23T00:42:30.827Z,7.30
2018-09-23T00:45:01.899Z,7.30
2018-09-23T00:47:32.948Z,7.30
2018-09-23T00:50:04.111Z,7.20
2018-09-23T00:52:35.217Z,7.40
2018-09-23T00:55:07.040Z,7.40
2018-09-23T00:57:38.362Z,7.40
2018-09-23T01:00:10.007Z,7.30
2018-09-23T01:02:41.119Z,7.30
2018-09-23T01:05:12.279Z,7.30
2018-09-23T01:07:43.323Z,7.40
2018-09-23T01:10:14.458Z,7.40
2018-09-23T01:12:45.483Z,7.40
2018-09-23T01:15:16.464Z,7.50
2018-09-23T01:17:47.620Z,7.50
2018-09-23T01:20:18.667Z,7.50
2018-09-23T01:22:49.687Z,7.30
2018-09-23T01:25:20.612Z,7.20
2018-09-23T01:27:51.596Z,7.10
2018-09-23T01:30:23.520Z,7.00
2018-09-23T01:32:54.438Z,6.80
2018-09-23T01:35:25.779Z,6.70
2018-09-23T01:37:56.719Z,6.60
2018-09-23T01:40:27.655Z,6.50
2018-09-23T01:42:58.849Z,6.40
2018-09-23T01:45:29.972Z,6.60
2018-09-23T01:48:01.089Z,6.70
2018-09-23T01:50:32.291Z,6.60
2018-09-23T01:53:03.344Z,6.40
2018-09-23T01:55:34.522Z,6.10
2018-09-23T01:58:05.542Z,6.00
2018-09-23T02:00:36.753Z,5.80
2018-09-23T02:03:07.953Z,6.00
2018-09-23T02:05:39.967Z,5.90
2018-09-23T02:08:11.738Z,5.80
2018-09-23T02:10:43.059Z,5.80
2018-09-23T02:13:14.665Z,5.80
2018-09-23T02:15:45.929Z,5.90
2018-09-23T02:18:17.268Z,6.00
2018-09-23T02:20:48.504Z,6.10
2018-09-23T02:23:19.773Z,6.20
2018-09-23T02:25:51.853Z,6.20
2018-09-23T02:28:23.216Z,6.20
2018-09-23T02:30:54.333Z,6.10
2018-09-23T02:33:25.403Z,6.10
2018-09-23T02:35:56.468Z,6.00
2018-09-23T02:38:27.583Z,5.90
2018-09-23T02:40:58.879Z,6.00
2018-09-23T02:43:29.996Z,6.10
2018-09-23T02:46:01.361Z,6.10
2018-09-23T02:48:32.937Z,6.10
2018-09-23T02:51:04.021Z,6.20
2018-09-23T02:53:35.163Z,6.10
2018-09-23T02:56:06.281Z,6.00
2018-09-23T02:58:38.331Z,5.80
2018-09-23T03:01:09.779Z,5.90
2018-09-23T03:03:40.848Z,6.00
2018-09-23T03:06:11.993Z,6.00
2018-09-23T03:08:43.369Z,6.00
2018-09-23T03:11:14.569Z,6.00
2018-09-23T03:13:45.783Z,5.90
2018-09-23T03:16:17.009Z,5.80
2018-09-23T03:18:48.083Z,5.60
2018-09-23T03:21:19.105Z,5.50
2018-09-23T03:23:50.568Z,5.50
2018-09-23T03:26:21.543Z,5.60
2018-09-23T03:28:52.777Z,5.50
2018-09-23T03:31:23.850Z,5.60
2018-09-23T03:33:55.072Z,5.70
2018-09-23T03:36:26.072Z,5.70
2018-09-23T03:38:57.098Z,5.60
2018-09-23T03:41:28.121Z,5.70
2018-09-23T03:43:59.239Z,5.70
2018-09-23T03:46:30.227Z,5.80
2018-09-23T03:49:01.648Z,5.70
2018-09-23T03:51:32.831Z,5.70
2018-09-23T03:54:03.791Z,5.70
2018-09-23T03:56:34.763Z,5.60
2018-09-23T03:59:05.807Z,5.70
2018-09-23T04:01:36.735Z,5.70
2018-09-23T04:04:07.996Z,5.70
2018-09-23T04:06:38.980Z,5.70
2018-09-23T04:09:10.273Z,5.60
2018-09-23T04:11:41.295Z,5.50
2018-09-23T04:14:12.268Z,5.50
2018-09-23T04:16:43.210Z,5.50
2018-09-23T04:19:14.218Z,5.50
2018-09-23T04:21:45.336Z,5.40
2018-09-23T04:24:16.351Z,5.40
2018-09-23T04:26:47.310Z,5.50
2018-09-23T04:29:18.520Z,5.50
2018-09-23T04:31:50.495Z,5.50
2018-09-23T04:34:21.630Z,5.50
2018-09-23T04:36:52.866Z,5.60
2018-09-23T04:39:24.021Z,5.70
2018-09-23T04:41:55.075Z,5.70
2018-09-23T04:44:26.151Z,5.70
2018-09-23T04:46:57.424Z,5.70
2018-09-23T04:49:28.568Z,5.80
2018-09-23T04:51:59.907Z,5.80
2018-09-23T04:54:31.338Z,5.70
2018-09-23T04:57:02.676Z,5.70
2018-09-23T04:59:33.748Z,5.70
2018-09-23T05:02:04.875Z,5.70
2018-09-23T05:04:35.987Z,5.60
2018-09-23T05:07:07.118Z,5.50
2018-09-23T05:09:38.256Z,5.50
2018-09-23T05:12:09.419Z,5.30
2018-09-23T05:14:40.696Z,5.20
2018-09-23T05:17:12.220Z,5.30
2018-09-23T05:19:43.359Z,5.40
2018-09-23T05:22:14.693Z,5.50
2018-09-23T05:24:46.749Z,5.60
2018-09-23T05:27:18.375Z,5.60
2018-09-23T05:29:49.820Z,5.50
2018-09-23T05:32:20.893Z,5.60
2018-09-23T05:34:51.923Z,5.60
2018-09-23T05:37:23.032Z,5.50
2018-09-23T05:39:54.125Z,5.40
2018-09-23T05:42:25.368Z,5.40
2018-09-23T05:44:56.529Z,5.30
2018-09-23T05:47:27.655Z,5.40
2018-09-23T05:49:58.841Z,5.50
2018-09-23T05:52:30.126Z,5.60
2018-09-23T05:55:01.152Z,5.70
2018-09-23T05:57:32.275Z,5.80
2018-09-23T06:00:03.571Z,5.90
2018-09-23T06:02:34.642Z,5.80
2018-09-23T06:05:05.771Z,5.80
2018-09-23T06:07:36.803Z,5.80
2018-09-23T06:10:07.934Z,5.80
2018-09-23T06:12:38.905Z,5.80
2018-09-23T06:15:10.006Z,5.80
2018-09-23T06:17:41.123Z,5.80
2018-09-23T06:20:12.258Z,5.70
2018-09-23T06:22:43.303Z,5.70
2018-09-23T06:25:14.400Z,5.60
2018-09-23T06:27:45.515Z,5.50
2018-09-23T06:30:16.595Z,5.50
2018-09-23T06:32:47.675Z,5.40
2018-09-23T06:35:18.849Z,5.40
2018-09-23T06:37:49.971Z,5.40
2018-09-23T06:40:21.175Z,5.40
2018-09-23T06:42:52.366Z,5.30
2018-09-23T06:45:23.419Z,5.30
2018-09-23T06:47:54.446Z,5.20
2018-09-23T06:50:25.616Z,5.20
2018-09-23T06:52:56.730Z,5.20
2018-09-23T06:55:27.911Z,5.20
2018-09-23T06:57:59.287Z,5.30
2018-09-23T07:00:30.396Z,5.20
2018-09-23T07:03:01.588Z,5.30
2018-09-23T07:05:32.887Z,5.30
2018-09-23T07:08:04.201Z,5.30
2018-09-23T07:10:35.443Z,5.20
2018-09-23T07:13:06.511Z,5.20
2018-09-23T07:15:38.059Z,5.10
2018-09-23T07:18:09.413Z,5.00
2018-09-23T07:20:40.639Z,5.00
2018-09-23T07:23:11.908Z,5.00
2018-09-23T07:25:43.069Z,5.00
2018-09-23T07:28:14.277Z,5.10
2018-09-23T07:30:45.543Z,5.10
2018-09-23T07:33:16.727Z,5.10
2018-09-23T07:35:47.862Z,5.00
2018-09-23T07:38:18.963Z,5.00
2018-09-23T07:40:50.103Z,5.00
2018-09-23T07:43:21.266Z,4.90
2018-09-23T07:45:52.484Z,4.80
2018-09-23T07:48:23.600Z,4.80
2018-09-23T07:50:54.713Z,4.80
2018-09-23T07:53:25.965Z,4.80
2018-09-23T07:55:57.243Z,4.70
2018-09-23T07:58:28.444Z,4.70
2018-09-23T08:00:59.564Z,4.60
2018-09-23T08:03:30.712Z,4.70
2018-09-23T08:06:01.940Z,4.60
2018-09-23T08:08:33.071Z,4.60
2018-09-23T08:11:04.159Z,4.60
2018-09-23T08:13:35.486Z,4.60
2018-09-23T08:16:06.527Z,4.70
2018-09-23T08:18:37.667Z,4.90
2018-09-23T08:21:08.865Z,4.90
2018-09-23T08:23:40.039Z,4.90
2018-09-23T08:26:11.335Z,4.90
2018-09-23T08:28:42.846Z,4.90
2018-09-23T08:31:14.119Z,4.90
2018-09-23T08:33:45.335Z,4.90
2018-09-23T08:36:16.495Z,4.90
2018-09-23T08:38:47.942Z,5.00
2018-09-23T08:41:19.095Z,4.80
2018-09-23T08:43:50.223Z,4.80
2018-09-23T08:46:21.235Z,4.80
2018-09-23T08:48:52.190Z,4.80
2018-09-23T08:51:23.295Z,4.70
2018-09-23T08:53:54.452Z,4.70
2018-09-23T08:56:25.436Z,4.80
2018-09-23T08:58:56.508Z,4.80
2018-09-23T09:01:27.782Z,4.90
2018-09-23T09:03:58.844Z,4.80
2018-09-23T09:06:29.876Z,4.80
2018-09-23T09:09:00.971Z,4.80
2018-09-23T09:11:32.022Z,4.90
2018-09-23T09:14:03.043Z,4.90
2018-09-23T09:16:34.194Z,4.90
2018-09-23T09:19:05.427Z,4.90
2018-09-23T09:21:36.448Z,4.90
2018-09-23T09:24:07.630Z,5.00
2018-09-23T09:26:38.741Z,5.00
2018-09-23T09:29:09.844Z,5.00
2018-09-23T09:31:40.843Z,5.10
2018-09-23T09:34:11.907Z,4.90
2018-09-23T09:36:43.302Z,4.80
2018-09-23T09:39:14.440Z,4.70
2018-09-23T09:41:45.559Z,4.60
2018-09-23T09:44:17.027Z,4.60
2018-09-23T09:46:48.367Z,4.50
2018-09-23T09:49:19.472Z,4.50
2018-09-23T09:51:50.559Z,4.50
2018-09-23T09:54:22.283Z,4.50
2018-09-23T09:56:53.395Z,4.50
2018-09-23T09:59:24.639Z,4.50
2018-09-23T10:01:55.691Z,4.40
2018-09-23T10:04:26.687Z,4.30
2018-09-23T10:06:57.751Z,4.30
2018-09-23T10:09:28.784Z,4.20
2018-09-23T10:11:59.937Z,4.30
2018-09-23T10:14:31.089Z,4.40
2018-09-23T10:17:02.327Z,4.30
2018-09-23T10:19:33.504Z,4.20
2018-09-23T10:22:04.749Z,4.10
2018-09-23T10:24:35.951Z,4.00
2018-09-23T10:27:06.999Z,3.90
2018-09-23T10:29:38.271Z,3.90
2018-09-23T10:32:09.483Z,3.90
2018-09-23T10:34:40.578Z,4.00
2018-09-23T10:37:11.705Z,3.90
2018-09-23T10:39:42.937Z,4.00
2018-09-23T10:42:13.887Z,3.80
2018-09-23T10:44:44.974Z,3.80
2018-09-23T10:47:16.112Z,3.80
2018-09-23T10:49:47.179Z,3.90
2018-09-23T10:52:18.649Z,3.80
2018-09-23T10:54:49.755Z,3.80
2018-09-23T10:57:21.473Z,3.80
2018-09-23T10:59:52.956Z,3.90
2018-09-23T11:02:24.439Z,3.90
2018-09-23T11:04:55.867Z,4.00
2018-09-23T11:07:28.103Z,4.10
2018-09-23T11:09:59.505Z,4.20
2018-09-23T11:12:31.082Z,4.30
2018-09-23T11:15:02.695Z,4.40
2018-09-23T11:20:36.959Z,4.60
2018-09-23T11:23:08.460Z,4.70
2018-09-23T11:25:39.851Z,4.60
2018-09-23T11:28:11.367Z,4.70
2018-09-23T11:30:43.202Z,4.70
2018-09-23T11:33:14.911Z,4.60
2018-09-23T11:35:45.961Z,4.60
2018-09-23T11:38:17.116Z,4.70
2018-09-23T11:40:48.084Z,4.70
2018-09-23T11:43:19.295Z,4.70
2018-09-23T11:45:50.423Z,4.80
2018-09-23T11:48:21.687Z,5.00
2018-09-23T11:50:53.187Z,5.20
2018-09-23T11:53:24.192Z,5.50
2018-09-23T11:55:55.527Z,5.70
2018-09-23T11:58:26.719Z,5.80
2018-09-23T12:00:57.727Z,5.90
2018-09-23T12:03:28.893Z,6.00
2018-09-23T12:05:59.843Z,6.00
2018-09-23T12:08:31.016Z,6.10
2018-09-23T12:11:02.166Z,6.30
2018-09-23T12:13:33.307Z,6.40
2018-09-23T12:16:04.377Z,6.50
2018-09-23T12:18:35.495Z,6.60
2018-09-23T12:21:06.459Z,6.70
2018-09-23T12:23:37.983Z,6.80
2018-09-23T12:26:09.551Z,7.00
2018-09-23T12:28:40.768Z,7.20
2018-09-23T12:31:12.284Z,7.40
2018-09-23T12:33:43.394Z,7.50
2018-09-23T12:36:14.432Z,7.70
2018-09-23T12:38:45.824Z,7.90
2018-09-23T12:41:16.931Z,8.10
2018-09-23T12:43:48.866Z,8.30
2018-09-23T12:46:20.301Z,8.50
2018-09-23T12:48:51.980Z,8.50
2018-09-23T12:51:23.624Z,8.60
2018-09-23T12:53:55.083Z,8.60
2018-09-23T12:56:26.521Z,8.60
2018-09-23T12:58:58.111Z,8.60
2018-09-23T13:01:29.375Z,8.70
2018-09-23T13:04:00.833Z,8.80
2018-09-23T13:06:32.558Z,9.00
2018-09-23T13:09:03.719Z,9.20
2018-09-23T13:11:35.183Z,9.30
2018-09-23T13:14:06.557Z,9.40
2018-09-23T13:16:38.276Z,9.50
2018-09-23T13:19:09.803Z,9.50
2018-09-23T13:21:40.828Z,9.60
2018-09-23T13:24:12.115Z,9.60
2018-09-23T13:29:08.911Z,9.90
2018-09-23T13:31:40.291Z,9.90
2018-09-23T13:34:11.703Z,9.90
2018-09-23T13:39:09.398Z,9.70
2018-09-23T13:41:40.711Z,9.80
2018-09-23T13:44:12.356Z,10.00
2018-09-23T13:49:09.261Z,10.70
2018-09-23T13:51:40.531Z,11.00
2018-09-23T13:54:11.607Z,11.10
2018-09-23T13:59:08.333Z,11.60
2018-09-23T14:01:39.385Z,11.90
2018-09-23T14:04:10.522Z,12.30
2018-09-23T14:06:41.574Z,12.40
2018-09-23T14:09:13.030Z,12.30
2018-09-23T14:11:44.605Z,12.60
2018-09-23T14:14:15.641Z,13.00
2018-09-23T14:16:46.672Z,13.30
2018-09-23T14:19:18.035Z,13.70
2018-09-23T14:21:49.035Z,13.90
2018-09-23T14:24:20.172Z,13.80
2018-09-23T14:26:51.390Z,13.50
2018-09-23T14:29:22.643Z,13.10
2018-09-23T14:31:53.716Z,13.10
2018-09-23T14:34:25.264Z,13.20
2018-09-23T14:36:56.272Z,13.40
2018-09-23T14:39:27.288Z,13.60
2018-09-23T14:41:58.417Z,13.90
2018-09-23T14:44:29.462Z,14.30
2018-09-23T14:47:00.405Z,14.70
2018-09-23T14:49:31.606Z,14.90
2018-09-23T14:52:02.656Z,14.70
2018-09-23T14:54:34.496Z,14.60
2018-09-23T14:57:05.647Z,14.40
2018-09-23T14:59:36.783Z,14.30
2018-09-23T15:02:07.951Z,14.50
2018-09-23T15:04:39.054Z,14.60
2018-09-23T15:07:10.179Z,14.80
2018-09-23T15:09:41.305Z,15.20
2018-09-23T15:12:12.478Z,15.30
2018-09-23T15:14:43.676Z,15.20
2018-09-23T15:17:14.802Z,14.80
2018-09-23T15:19:46.104Z,14.50
2018-09-23T15:22:17.168Z,14.30
2018-09-23T15:24:48.545Z,14.20
2018-09-23T15:27:20.079Z,14.10
2018-09-23T15:29:51.146Z,14.10
2018-09-23T15:32:22.608Z,14.10
2018-09-23T15:34:54.208Z,14.10
2018-09-23T15:37:25.263Z,14.10
2018-09-23T15:39:56.404Z,14.20
2018-09-23T15:42:27.583Z,14.30
2018-09-23T15:44:59.030Z,14.50
2018-09-23T15:47:30.462Z,14.60
2018-09-23T15:50:01.940Z,14.80
2018-09-23T15:52:33.467Z,14.90
2018-09-23T15:55:04.756Z,15.00
2018-09-23T15:57:36.056Z,15.20
2018-09-23T16:00:07.227Z,15.50
2018-09-23T16:02:38.299Z,15.80
2018-09-23T16:05:09.487Z,15.90
2018-09-23T16:07:40.840Z,15.90
2018-09-23T16:10:11.912Z,15.80
2018-09-23T16:12:42.926Z,15.70
2018-09-23T16:15:13.952Z,15.60
2018-09-23T16:17:45.157Z,15.70
2018-09-23T16:20:16.547Z,15.90
2018-09-23T16:22:47.551Z,16.20
2018-09-23T16:25:18.825Z,16.30
2018-09-23T16:27:49.900Z,16.70
2018-09-23T16:30:21.399Z,16.90
2018-09-23T16:32:52.431Z,17.10
2018-09-23T16:35:23.668Z,16.70
2018-09-23T16:37:54.767Z,16.30
2018-09-23T16:40:25.801Z,15.90
2018-09-23T16:42:56.920Z,16.10
2018-09-23T16:45:27.901Z,16.50
2018-09-23T16:47:58.871Z,16.60
2018-09-23T16:50:30.047Z,16.80
2018-09-23T16:53:01.079Z,16.90
2018-09-23T16:55:32.121Z,16.90
2018-09-23T16:58:03.099Z,16.10
2018-09-23T17:03:02.814Z,16.20
2018-09-23T17:05:33.867Z,16.10
2018-09-23T17:08:05.051Z,16.20
2018-09-23T17:10:36.260Z,16.80
2018-09-23T17:13:07.592Z,17.20
2018-09-23T17:15:39.155Z,17.60
2018-09-23T17:18:10.768Z,17.80
2018-09-23T17:20:42.365Z,17.30
2018-09-23T17:23:13.380Z,17.10
2018-09-23T17:25:45.850Z,17.10
2018-09-23T17:28:17.982Z,16.90
2018-09-23T17:30:49.292Z,16.60
2018-09-23T17:33:20.587Z,17.10
2018-09-23T17:35:52.189Z,17.20
2018-09-23T17:38:23.664Z,17.30
2018-09-23T17:40:54.737Z,16.90
2018-09-23T17:43:26.283Z,16.50
2018-09-23T17:45:58.195Z,16.30
2018-09-23T17:48:29.600Z,16.50
2018-09-23T17:51:01.038Z,16.90
2018-09-23T17:53:32.496Z,17.70
2018-09-23T17:56:04.024Z,18.30
2018-09-23T17:58:35.117Z,18.50
2018-09-23T18:01:06.327Z,18.10
2018-09-23T18:03:37.800Z,17.90
2018-09-23T18:06:09.276Z,17.50
2018-09-23T18:08:40.598Z,17.60
2018-09-23T18:11:12.016Z,17.80
2018-09-23T18:13:43.626Z,18.30
2018-09-23T18:16:14.696Z,18.60
2018-09-23T18:18:46.124Z,18.90
2018-09-23T18:21:17.369Z,19.20
2018-09-23T18:23:48.958Z,19.10
2018-09-23T18:26:20.054Z,19.10
2018-09-23T18:28:51.395Z,18.80
2018-09-23T18:31:23.471Z,19.10
2018-09-23T18:33:55.144Z,19.20
2018-09-23T18:36:26.334Z,19.10
2018-09-23T18:38:59.608Z,19.10
2018-09-23T18:41:30.972Z,19.20
2018-09-23T18:44:02.316Z,19.50
2018-09-23T18:46:33.429Z,18.60
2018-09-23T18:49:04.753Z,18.20
2018-09-23T18:51:36.258Z,18.00
2018-09-23T18:54:11.875Z,18.30
2018-09-23T18:59:10.676Z,18.60
2018-09-23T19:01:41.874Z,18.10
2018-09-23T19:04:13.436Z,18.20
2018-09-23T19:06:44.432Z,18.40
2018-09-23T19:09:15.431Z,18.60
2018-09-23T19:11:46.515Z,18.80
2018-09-23T19:14:17.751Z,19.10
2018-09-23T19:16:48.760Z,19.10
2018-09-23T19:19:20.056Z,19.30
2018-09-23T19:21:51.200Z,18.80
2018-09-23T19:24:22.439Z,19.20
2018-09-23T19:26:53.546Z,18.60
2018-09-23T19:29:24.726Z,18.30
2018-09-23T19:31:55.839Z,17.70
2018-09-23T19:34:27.303Z,17.40
2018-09-23T19:36:59.068Z,17.50
2018-09-23T19:39:30.826Z,18.30
2018-09-23T19:42:02.624Z,18.50
2018-09-23T19:44:33.689Z,18.40
2018-09-23T19:47:04.691Z,18.00
2018-09-23T19:49:35.788Z,17.60
2018-09-23T19:52:06.809Z,17.30
2018-09-23T19:54:37.876Z,16.90
2018-09-23T19:57:09.045Z,16.70
2018-09-23T19:59:40.152Z,16.90
2018-09-23T20:02:11.295Z,16.90
2018-09-23T20:04:42.283Z,16.70
2018-09-23T20:07:13.320Z,16.60
2018-09-23T20:09:44.453Z,16.30
2018-09-23T20:12:15.906Z,16.20
2018-09-23T20:14:48.052Z,16.20
2018-09-23T20:17:19.011Z,16.10
2018-09-23T20:19:50.540Z,16.30
2018-09-23T20:22:21.606Z,16.30
2018-09-23T20:24:52.983Z,16.30
2018-09-23T20:27:23.935Z,16.80
2018-09-23T20:29:55.376Z,17.50
2018-09-23T20:32:26.737Z,17.80
2018-09-23T20:34:57.816Z,18.00
2018-09-23T20:37:28.796Z,17.60
2018-09-23T20:40:00.538Z,17.70
2018-09-23T20:42:31.551Z,17.70
2018-09-23T20:45:02.822Z,17.50
2018-09-23T20:47:33.776Z,16.90
2018-09-23T20:50:05.045Z,16.50
2018-09-23T20:52:36.188Z,15.90
2018-09-23T20:55:07.318Z,15.60
2018-09-23T20:57:38.420Z,15.60
2018-09-23T21:00:09.628Z,15.60
2018-09-23T21:02:40.781Z,15.40
2018-09-23T21:05:11.802Z,15.30
2018-09-23T21:07:43.112Z,15.00
2018-09-23T21:10:14.113Z,14.80
2018-09-23T21:12:45.406Z,14.60
2018-09-23T21:15:16.803Z,14.50
2018-09-23T21:20:13.611Z,14.50
2018-09-23T21:22:44.595Z,14.60
2018-09-23T21:25:15.857Z,14.70
2018-09-23T21:27:46.792Z,14.60
2018-09-23T21:30:18.707Z,14.30
2018-09-23T21:32:49.656Z,14.00
2018-09-23T21:35:20.831Z,13.70
2018-09-23T21:37:52.531Z,13.40
2018-09-23T21:40:24.273Z,13.20
2018-09-23T21:42:55.703Z,13.10
2018-09-23T21:45:27.095Z,12.90
2018-09-23T21:47:58.050Z,12.70
2018-09-23T21:50:29.923Z,12.50
2018-09-23T21:53:01.348Z,12.40
2018-09-23T21:55:32.716Z,12.10
2018-09-23T21:58:03.684Z,12.00
2018-09-23T22:00:39.519Z,11.90
2018-09-23T22:03:10.991Z,11.80
2018-09-23T22:05:42.138Z,11.80
2018-09-23T22:08:13.810Z,11.70
2018-09-23T22:10:45.351Z,11.60
2018-09-23T22:13:16.631Z,11.50
2018-09-23T22:15:47.599Z,11.40
2018-09-23T22:18:19.153Z,11.30
2018-09-23T22:20:50.267Z,11.20
2018-09-23T22:23:21.256Z,11.10
2018-09-23T22:25:52.383Z,11.00
2018-09-23T22:28:24.184Z,10.90
2018-09-23T22:30:55.630Z,10.60
2018-09-23T22:33:26.976Z,10.50
2018-09-23T22:35:58.436Z,10.40
2018-09-23T22:38:29.743Z,10.40
2018-09-23T22:41:01.575Z,10.30
2018-09-23T22:43:32.648Z,10.40
2018-09-23T22:46:03.695Z,10.40
2018-09-23T22:48:34.683Z,10.40
2018-09-23T22:51:06.067Z,10.30
2018-09-23T22:53:37.132Z,10.30
2018-09-23T22:56:08.327Z,10.30
2018-09-23T22:58:39.409Z,10.30
2018-09-23T23:01:10.495Z,10.30
2018-09-23T23:03:42.262Z,10.20
2018-09-23T23:06:13.572Z,10.20
2018-09-23T23:08:44.713Z,10.20
2018-09-23T23:11:16.357Z,10.20
2018-09-23T23:13:47.955Z,10.10
2018-09-23T23:16:19.448Z,10.10
2018-09-23T23:18:50.455Z,10.00
2018-09-23T23:21:21.599Z,9.90
2018-09-23T23:23:52.968Z,9.90
2018-09-23T23:26:24.371Z,9.80
2018-09-23T23:28:55.913Z,9.80
2018-09-23T23:31:27.378Z,9.80
2018-09-23T23:33:58.757Z,9.80
2018-09-23T23:36:30.523Z,9.80
2018-09-23T23:39:02.021Z,9.80
2018-09-23T23:41:33.190Z,9.70
2018-09-23T23:44:04.418Z,9.70
2018-09-23T23:46:35.423Z,9.70
2018-09-23T23:49:06.803Z,9.60
2018-09-23T23:51:38.480Z,9.60
2018-09-23T23:54:09.938Z,9.60
2018-09-23T23:56:41.127Z,9.60
2018-09-23T23:59:12.900Z,9.60
